createdAt,value
2018-08-30T00:01:07.915Z,3.03
2018-08-30T00:03:36.317Z,3.23
2018-08-30T00:06:04.766Z,3.47
2018-08-30T00:08:33.243Z,2.80
2018-08-30T00:11:01.640Z,3.50
2018-08-30T00:13:30.053Z,3.20
2018-08-30T00:15:58.540Z,3.20
2018-08-30T00:18:26.941Z,3.23
2018-08-30T00:20:55.358Z,3.20
2018-08-30T00:23:23.786Z,3.47
2018-08-30T00:25:52.220Z,3.37
2018-08-30T00:28:20.717Z,3.60
2018-08-30T00:30:49.130Z,3.90
2018-08-30T00:33:17.551Z,3.53
2018-08-30T00:35:46.202Z,3.93
2018-08-30T00:38:14.619Z,3.73
2018-08-30T00:40:43.029Z,3.90
2018-08-30T00:43:11.653Z,4.13
2018-08-30T00:45:40.090Z,3.40
2018-08-30T00:48:08.503Z,3.77
2018-08-30T00:50:36.926Z,4.03
2018-08-30T00:53:05.416Z,3.97
2018-08-30T00:55:33.847Z,3.40
2018-08-30T00:58:02.247Z,3.53
2018-08-30T01:00:30.673Z,3.77
2018-08-30T01:02:59.159Z,3.27
2018-08-30T01:05:27.565Z,3.33
2018-08-30T01:07:56.004Z,3.40
2018-08-30T01:10:24.449Z,3.60
2018-08-30T01:12:54.757Z,3.30
2018-08-30T01:15:25.124Z,3.80
2018-08-30T01:17:53.881Z,3.20
2018-08-30T01:20:22.790Z,2.97
2018-08-30T01:22:51.702Z,3.43
2018-08-30T01:25:20.252Z,3.27
2018-08-30T01:27:49.364Z,3.20
2018-08-30T01:30:18.146Z,3.10
2018-08-30T01:32:46.809Z,3.13
2018-08-30T01:35:15.262Z,2.87
2018-08-30T01:37:43.693Z,2.73
2018-08-30T01:40:12.373Z,2.50
2018-08-30T01:42:40.805Z,2.60
2018-08-30T01:45:09.246Z,2.70
2018-08-30T01:47:37.697Z,2.50
2018-08-30T01:50:06.157Z,2.30
2018-08-30T01:52:34.562Z,2.10
2018-08-30T01:55:03.009Z,2.80
2018-08-30T01:57:31.397Z,2.63
2018-08-30T01:59:59.837Z,2.43
2018-08-30T02:02:28.258Z,2.60
2018-08-30T02:04:56.688Z,2.73
2018-08-30T02:07:25.112Z,3.03
2018-08-30T02:09:53.530Z,2.30
2018-08-30T02:12:21.961Z,2.60
2018-08-30T02:14:50.356Z,3.30
2018-08-30T02:17:18.842Z,3.10
2018-08-30T02:19:47.254Z,2.90
2018-08-30T02:22:15.663Z,3.13
2018-08-30T02:24:47.630Z,2.77
2018-08-30T02:27:16.249Z,2.70
2018-08-30T02:29:44.661Z,2.97
2018-08-30T02:32:13.086Z,3.60
2018-08-30T02:34:41.536Z,3.20
2018-08-30T02:37:10.803Z,2.87
2018-08-30T02:39:39.421Z,3.33
2018-08-30T02:42:07.849Z,3.27
2018-08-30T02:44:36.294Z,2.80
2018-08-30T02:47:04.892Z,2.77
2018-08-30T02:49:33.301Z,3.00
2018-08-30T02:52:01.739Z,3.10
2018-08-30T02:54:30.234Z,3.47
2018-08-30T02:56:58.625Z,3.37
2018-08-30T02:59:27.038Z,2.83
2018-08-30T03:01:55.460Z,3.17
2018-08-30T03:04:23.900Z,2.87
2018-08-30T03:06:52.302Z,3.30
2018-08-30T03:09:20.775Z,3.00
2018-08-30T03:11:49.227Z,3.60
2018-08-30T03:14:17.653Z,2.77
2018-08-30T03:16:46.065Z,2.60
2018-08-30T03:19:14.528Z,2.77
2018-08-30T03:21:43.245Z,2.70
2018-08-30T03:24:11.741Z,3.33
2018-08-30T03:26:40.153Z,3.23
2018-08-30T03:29:08.566Z,3.40
2018-08-30T03:31:36.996Z,3.10
2018-08-30T03:34:05.893Z,4.07
2018-08-30T03:36:34.302Z,4.33
2018-08-30T03:39:02.786Z,3.60
2018-08-30T03:41:31.202Z,4.23
2018-08-30T03:43:59.621Z,3.73
2018-08-30T03:46:28.025Z,4.43
2018-08-30T03:48:56.436Z,4.27
2018-08-30T03:51:24.853Z,4.27
2018-08-30T03:53:53.270Z,4.00
2018-08-30T03:56:21.706Z,4.00
2018-08-30T03:58:50.178Z,4.30
2018-08-30T04:01:18.602Z,4.30
2018-08-30T04:03:47.022Z,4.10
2018-08-30T04:06:15.469Z,3.93
2018-08-30T04:08:43.890Z,4.40
2018-08-30T04:11:12.310Z,3.67
2018-08-30T04:13:40.747Z,3.80
2018-08-30T04:16:09.118Z,4.07
2018-08-30T04:18:37.546Z,3.40
2018-08-30T04:21:05.950Z,4.60
2018-08-30T04:23:34.366Z,3.57
2018-08-30T04:26:02.794Z,3.50
2018-08-30T04:28:31.202Z,3.37
2018-08-30T04:30:59.870Z,3.37
2018-08-30T04:33:28.258Z,3.43
2018-08-30T04:35:56.913Z,3.50
2018-08-30T04:38:25.325Z,3.30
2018-08-30T04:40:53.733Z,3.77
2018-08-30T04:43:22.137Z,3.43
2018-08-30T04:45:50.566Z,3.23
2018-08-30T04:48:18.961Z,3.47
2018-08-30T04:50:47.382Z,3.60
2018-08-30T04:53:15.796Z,3.03
2018-08-30T04:55:44.230Z,3.17
2018-08-30T04:58:12.641Z,3.20
2018-08-30T05:00:41.053Z,3.23
2018-08-30T05:03:09.486Z,3.10
2018-08-30T05:05:37.921Z,3.30
2018-08-30T05:08:06.621Z,3.10
2018-08-30T05:10:35.090Z,2.80
2018-08-30T05:13:03.505Z,3.17
2018-08-30T05:15:32.028Z,3.10
2018-08-30T05:18:00.658Z,3.00
2018-08-30T05:20:29.061Z,3.30
2018-08-30T05:22:57.493Z,3.13
2018-08-30T05:25:25.917Z,3.40
2018-08-30T05:27:54.311Z,3.03
2018-08-30T05:30:22.723Z,3.73
2018-08-30T05:32:51.118Z,3.20
2018-08-30T05:35:19.562Z,3.23
2018-08-30T05:37:47.953Z,3.40
2018-08-30T05:40:16.390Z,3.60
2018-08-30T05:42:44.823Z,3.67
2018-08-30T05:45:13.241Z,3.30
2018-08-30T05:47:41.651Z,3.20
2018-08-30T05:50:10.109Z,3.57
2018-08-30T05:52:38.517Z,3.30
2018-08-30T05:55:06.957Z,3.50
2018-08-30T05:57:35.358Z,3.60
2018-08-30T06:00:03.925Z,3.60
2018-08-30T06:02:32.373Z,3.47
2018-08-30T06:05:00.779Z,4.50
2018-08-30T06:07:29.178Z,4.33
2018-08-30T06:09:57.620Z,3.90
2018-08-30T06:12:26.343Z,3.57
2018-08-30T06:14:55.854Z,3.63
2018-08-30T06:17:24.379Z,4.13
2018-08-30T06:19:52.984Z,4.30
2018-08-30T06:22:24.088Z,4.60
2018-08-30T06:24:52.517Z,4.80
2018-08-30T06:27:20.955Z,4.97
2018-08-30T06:29:49.394Z,4.50
2018-08-30T06:32:17.865Z,4.93
2018-08-30T06:34:46.556Z,5.60
2018-08-30T06:37:15.004Z,4.73
2018-08-30T06:39:43.446Z,5.10
2018-08-30T06:42:12.370Z,5.90
2018-08-30T06:44:40.824Z,4.80
2018-08-30T06:47:09.269Z,5.50
2018-08-30T06:49:37.742Z,5.10
2018-08-30T06:52:06.315Z,6.07
2018-08-30T06:54:34.761Z,6.03
2018-08-30T06:57:03.420Z,5.63
2018-08-30T06:59:31.893Z,5.60
2018-08-30T07:02:00.321Z,5.33
2018-08-30T07:04:28.717Z,5.00
2018-08-30T07:06:57.154Z,4.90
2018-08-30T07:09:25.595Z,5.00
2018-08-30T07:11:54.048Z,5.33
2018-08-30T07:14:22.450Z,5.23
2018-08-30T07:16:50.854Z,4.53
2018-08-30T07:19:19.282Z,5.70
2018-08-30T07:21:47.738Z,4.90
2018-08-30T07:24:18.652Z,5.27
2018-08-30T07:26:49.511Z,4.40
2018-08-30T07:29:18.161Z,5.23
2018-08-30T07:31:46.598Z,5.23
2018-08-30T07:34:15.543Z,4.90
2018-08-30T07:36:43.962Z,4.40
2018-08-30T07:39:13.047Z,4.90
2018-08-30T07:41:41.669Z,3.90
2018-08-30T07:44:11.416Z,4.50
2018-08-30T07:46:39.796Z,5.07
2018-08-30T07:49:09.347Z,4.10
2018-08-30T07:51:37.823Z,4.90
2018-08-30T07:54:06.689Z,4.40
2018-08-30T07:56:35.111Z,4.90
2018-08-30T07:59:03.539Z,5.20
2018-08-30T08:01:31.978Z,3.73
2018-08-30T08:04:00.454Z,3.90
2018-08-30T08:06:28.876Z,4.07
2018-08-30T08:08:57.316Z,3.30
2018-08-30T08:11:25.753Z,3.93
2018-08-30T08:13:54.215Z,3.23
2018-08-30T08:16:22.624Z,3.27
2018-08-30T08:18:51.061Z,3.60
2018-08-30T08:21:19.697Z,4.00
2018-08-30T08:23:48.345Z,3.70
2018-08-30T08:26:16.771Z,3.80
2018-08-30T08:28:45.189Z,3.07
2018-08-30T08:31:13.677Z,3.53
2018-08-30T08:33:42.057Z,3.93
2018-08-30T08:36:10.701Z,3.67
2018-08-30T08:38:39.135Z,3.87
2018-08-30T08:41:07.616Z,3.93
2018-08-30T08:43:36.027Z,3.50
2018-08-30T08:46:04.494Z,3.63
2018-08-30T08:48:32.929Z,3.47
2018-08-30T08:51:01.415Z,3.90
2018-08-30T08:53:29.900Z,4.00
2018-08-30T08:55:58.310Z,3.77
2018-08-30T08:58:26.723Z,3.53
2018-08-30T09:00:55.153Z,3.80
2018-08-30T09:03:23.562Z,3.77
2018-08-30T09:05:51.994Z,4.10
2018-08-30T09:08:20.481Z,4.43
2018-08-30T09:10:48.887Z,4.23
2018-08-30T09:13:17.313Z,4.27
2018-08-30T09:15:45.734Z,4.90
2018-08-30T09:18:14.150Z,5.00
2018-08-30T09:20:42.589Z,5.00
2018-08-30T09:23:11.316Z,5.13
2018-08-30T09:25:39.721Z,4.10
2018-08-30T09:28:08.146Z,3.80
2018-08-30T09:30:36.585Z,4.37
2018-08-30T09:33:05.466Z,3.70
2018-08-30T09:35:33.893Z,4.27
2018-08-30T09:38:02.325Z,3.47
2018-08-30T09:40:30.785Z,3.90
2018-08-30T09:42:59.775Z,3.70
2018-08-30T09:45:28.484Z,3.83
2018-08-30T09:47:57.139Z,3.67
2018-08-30T09:50:25.587Z,3.50
2018-08-30T09:52:54.013Z,4.23
2018-08-30T09:55:23.702Z,4.10
2018-08-30T09:57:52.115Z,3.60
2018-08-30T10:00:25.865Z,4.17
2018-08-30T10:02:54.465Z,4.50
2018-08-30T10:05:23.089Z,4.13
2018-08-30T10:07:51.518Z,4.10
2018-08-30T10:10:19.950Z,15.27
2018-08-30T10:12:48.381Z,4.87
2018-08-30T10:15:16.802Z,4.50
2018-08-30T10:17:45.210Z,4.67
2018-08-30T10:20:13.889Z,3.93
2018-08-30T10:22:42.389Z,4.10
2018-08-30T10:25:10.817Z,4.30
2018-08-30T10:27:39.260Z,4.60
2018-08-30T10:30:07.701Z,4.77
2018-08-30T10:32:36.141Z,3.90
2018-08-30T10:35:04.807Z,4.13
2018-08-30T10:37:33.273Z,5.03
2018-08-30T10:40:01.689Z,4.80
2018-08-30T10:42:30.130Z,4.20
2018-08-30T10:44:58.818Z,4.80
2018-08-30T10:47:27.260Z,5.00
2018-08-30T10:49:55.856Z,4.93
2018-08-30T10:52:24.231Z,4.30
2018-08-30T10:54:52.914Z,4.70
2018-08-30T10:57:21.557Z,4.30
2018-08-30T10:59:50.018Z,4.17
2018-08-30T11:02:18.928Z,4.60
2018-08-30T11:04:52.232Z,4.73
2018-08-30T11:07:20.797Z,4.47
2018-08-30T11:09:49.288Z,4.43
2018-08-30T11:12:17.729Z,5.30
2018-08-30T11:14:46.253Z,4.57
2018-08-30T11:17:14.646Z,4.90
2018-08-30T11:19:43.075Z,4.50
2018-08-30T11:22:11.550Z,4.90
2018-08-30T11:24:39.985Z,5.07
2018-08-30T11:27:08.405Z,5.20
2018-08-30T11:29:41.729Z,5.70
2018-08-30T11:32:10.146Z,4.20
2018-08-30T11:34:38.605Z,4.57
2018-08-30T11:37:07.299Z,4.30
2018-08-30T11:39:36.249Z,5.53
2018-08-30T11:42:04.843Z,5.60
2018-08-30T11:44:33.255Z,5.73
2018-08-30T11:47:01.686Z,5.73
2018-08-30T11:49:30.129Z,5.40
2018-08-30T11:51:58.550Z,5.07
2018-08-30T11:54:26.989Z,5.77
2018-08-30T11:56:55.407Z,5.50
2018-08-30T11:59:23.805Z,4.87
2018-08-30T12:01:52.307Z,4.80
2018-08-30T12:04:20.789Z,5.10
2018-08-30T12:06:49.293Z,5.00
2018-08-30T12:09:17.746Z,5.00
2018-08-30T12:11:46.224Z,5.53
2018-08-30T12:14:14.649Z,5.83
2018-08-30T12:16:43.073Z,6.40
2018-08-30T12:19:11.487Z,5.00
2018-08-30T12:21:39.922Z,6.00
2018-08-30T12:24:08.333Z,5.40
2018-08-30T12:26:37.121Z,6.37
2018-08-30T12:29:05.661Z,6.40
2018-08-30T12:31:34.121Z,6.30
2018-08-30T12:34:02.758Z,6.30
2018-08-30T12:36:31.342Z,5.77
2018-08-30T12:38:59.815Z,5.07
2018-08-30T12:41:28.242Z,5.03
2018-08-30T12:43:56.797Z,5.80
2018-08-30T12:46:25.037Z,5.53
2018-08-30T12:48:53.517Z,6.63
2018-08-30T12:51:22.069Z,5.57
2018-08-30T12:53:50.473Z,5.03
2018-08-30T12:56:18.931Z,5.60
2018-08-30T12:58:47.321Z,5.83
2018-08-30T13:01:15.699Z,6.60
2018-08-30T13:03:44.187Z,6.17
2018-08-30T13:06:12.849Z,5.80
2018-08-30T13:08:41.232Z,4.83
2018-08-30T13:11:09.655Z,6.83
2018-08-30T13:13:38.094Z,5.37
2018-08-30T13:16:06.719Z,7.00
2018-08-30T13:18:35.160Z,6.50
2018-08-30T13:21:03.583Z,6.40
2018-08-30T13:23:32.872Z,6.10
2018-08-30T13:26:01.333Z,6.87
2018-08-30T13:28:29.851Z,6.53
2018-08-30T13:30:58.500Z,6.57
2018-08-30T13:33:26.820Z,6.70
2018-08-30T13:35:55.282Z,7.30
2018-08-30T13:38:23.772Z,5.83
2018-08-30T13:40:52.526Z,6.67
2018-08-30T13:43:20.841Z,6.87
2018-08-30T13:45:49.407Z,6.60
2018-08-30T13:48:18.035Z,6.50
2018-08-30T13:50:46.200Z,6.00
2018-08-30T13:53:15.051Z,6.60
2018-08-30T13:55:43.157Z,6.00
2018-08-30T13:58:12.047Z,7.00
2018-08-30T14:00:40.826Z,6.97
2018-08-30T14:03:08.908Z,7.03
2018-08-30T14:05:37.388Z,7.70
2018-08-30T14:08:05.888Z,7.60
2018-08-30T14:10:34.441Z,6.50
2018-08-30T14:13:02.944Z,6.80
2018-08-30T14:15:31.246Z,6.17
2018-08-30T14:17:59.431Z,6.80
2018-08-30T14:20:27.862Z,6.30
2018-08-30T14:22:56.679Z,6.60
2018-08-30T14:25:25.041Z,6.60
2018-08-30T14:27:53.422Z,6.97
2018-08-30T14:30:21.846Z,7.20
2018-08-30T14:32:50.287Z,7.20
2018-08-30T14:35:18.827Z,7.43
2018-08-30T14:37:47.165Z,6.57
2018-08-30T14:40:15.652Z,6.77
2018-08-30T14:42:46.420Z,7.27
2018-08-30T14:45:14.962Z,7.30
2018-08-30T14:47:43.528Z,7.33
2018-08-30T14:50:12.012Z,7.33
2018-08-30T14:52:40.821Z,7.20
2018-08-30T14:55:09.748Z,6.90
2018-08-30T14:57:38.608Z,7.53
2018-08-30T15:00:07.296Z,7.63
2018-08-30T15:02:35.682Z,7.10
2018-08-30T15:05:04.286Z,6.63
2018-08-30T15:07:32.570Z,6.80
2018-08-30T15:10:01.002Z,7.10
2018-08-30T15:12:29.475Z,8.40
2018-08-30T15:14:58.022Z,7.13
2018-08-30T15:17:26.612Z,6.87
2018-08-30T15:19:55.252Z,7.77
2018-08-30T15:22:23.793Z,8.10
2018-08-30T15:24:52.218Z,7.60
2018-08-30T15:27:20.713Z,8.67
2018-08-30T15:29:49.442Z,6.60
2018-08-30T15:32:18.099Z,7.80
2018-08-30T15:34:46.517Z,7.53
2018-08-30T15:37:14.934Z,6.97
2018-08-30T15:39:43.389Z,8.17
2018-08-30T15:42:11.905Z,7.83
2018-08-30T15:44:40.260Z,7.77
2018-08-30T15:47:08.740Z,7.40
2018-08-30T15:49:37.146Z,7.50
2018-08-30T15:52:05.958Z,6.40
2018-08-30T15:54:34.403Z,6.83
2018-08-30T15:57:02.881Z,6.80
2018-08-30T15:59:31.444Z,6.70
2018-08-30T16:01:59.926Z,6.80
2018-08-30T16:04:28.361Z,6.60
2018-08-30T16:06:56.786Z,6.20
2018-08-30T16:09:25.215Z,6.40
2018-08-30T16:11:53.657Z,6.73
2018-08-30T16:14:22.304Z,7.20
2018-08-30T16:16:51.126Z,5.87
2018-08-30T16:19:19.849Z,6.87
2018-08-30T16:21:48.292Z,6.40
2018-08-30T16:24:16.793Z,6.43
2018-08-30T16:26:45.247Z,5.93
2018-08-30T16:29:13.751Z,5.70
2018-08-30T16:31:42.129Z,7.00
2018-08-30T16:34:10.542Z,6.77
2018-08-30T16:36:38.974Z,6.70
2018-08-30T16:39:09.274Z,6.57
2018-08-30T16:41:37.615Z,7.10
2018-08-30T16:44:06.058Z,7.73
2018-08-30T16:46:34.511Z,7.37
2018-08-30T16:49:02.933Z,7.83
2018-08-30T16:51:32.226Z,6.87
2018-08-30T16:54:00.637Z,7.43
2018-08-30T16:56:29.091Z,7.30
2018-08-30T16:58:57.603Z,7.57
2018-08-30T17:01:26.015Z,7.20
2018-08-30T17:03:54.448Z,7.50
2018-08-30T17:06:23.014Z,6.80
2018-08-30T17:08:51.489Z,7.53
2018-08-30T17:11:19.862Z,6.90
2018-08-30T17:13:48.338Z,7.13
2018-08-30T17:16:16.777Z,6.93
2018-08-30T17:18:47.446Z,6.77
2018-08-30T17:21:16.112Z,7.10
2018-08-30T17:23:44.644Z,7.50
2018-08-30T17:26:13.222Z,7.87
2018-08-30T17:28:41.733Z,8.37
2018-08-30T17:31:10.396Z,8.13
2018-08-30T17:33:38.623Z,6.63
2018-08-30T17:36:07.145Z,7.87
2018-08-30T17:38:35.574Z,6.90
2018-08-30T17:41:04.069Z,7.47
2018-08-30T17:43:32.481Z,7.53
2018-08-30T17:46:00.937Z,7.83
2018-08-30T17:48:29.373Z,7.50
2018-08-30T17:50:58.589Z,8.00
2018-08-30T17:53:27.033Z,8.23
2018-08-30T17:55:55.555Z,7.07
2018-08-30T17:58:24.053Z,7.53
2018-08-30T18:00:52.545Z,7.23
2018-08-30T18:03:20.983Z,7.50
2018-08-30T18:05:49.482Z,7.53
2018-08-30T18:08:17.921Z,8.57
2018-08-30T18:10:46.460Z,8.00
2018-08-30T18:13:14.773Z,7.70
2018-08-30T18:15:43.190Z,8.13
2018-08-30T18:18:11.761Z,6.80
2018-08-30T18:20:40.140Z,8.60
2018-08-30T18:23:08.554Z,8.90
2018-08-30T18:25:37.035Z,7.93
2018-08-30T18:28:05.509Z,8.97
2018-08-30T18:30:33.926Z,9.17
2018-08-30T18:33:02.618Z,8.93
2018-08-30T18:35:31.038Z,8.77
2018-08-30T18:37:59.487Z,8.70
2018-08-30T18:40:27.929Z,8.53
2018-08-30T18:42:56.352Z,9.20
2018-08-30T18:45:24.785Z,9.17
2018-08-30T18:47:53.221Z,10.17
2018-08-30T18:50:21.651Z,9.00
2018-08-30T18:52:50.173Z,9.60
2018-08-30T18:55:18.828Z,9.10
2018-08-30T18:57:47.242Z,10.33
2018-08-30T19:00:15.678Z,9.10
2018-08-30T19:02:44.086Z,10.03
2018-08-30T19:05:12.746Z,10.30
2018-08-30T19:07:41.154Z,9.20
2018-08-30T19:10:09.609Z,9.53
2018-08-30T19:12:38.099Z,10.60
2018-08-30T19:15:11.819Z,10.40
2018-08-30T19:17:45.510Z,8.67
2018-08-30T19:20:14.046Z,11.20
2018-08-30T19:22:42.460Z,9.30
2018-08-30T19:25:13.541Z,9.63
2018-08-30T19:27:42.508Z,8.60
2018-08-30T19:30:16.361Z,8.90
2018-08-30T19:32:44.783Z,8.50
2018-08-30T19:35:18.689Z,10.50
2018-08-30T19:37:47.129Z,10.33
2018-08-30T19:40:20.927Z,10.27
2018-08-30T19:42:50.018Z,8.90
2018-08-30T19:45:19.729Z,9.60
2018-08-30T19:47:48.560Z,9.90
2018-08-30T19:50:16.996Z,9.30
2018-08-30T19:52:45.443Z,9.80
2018-08-30T19:55:13.865Z,9.40
2018-08-30T19:57:47.223Z,9.67
2018-08-30T20:00:15.782Z,9.83
2018-08-30T20:02:44.234Z,10.23
2018-08-30T20:05:12.697Z,10.37
2018-08-30T20:07:41.137Z,10.07
2018-08-30T20:10:09.810Z,9.80
2018-08-30T20:12:39.063Z,11.03
2018-08-30T20:15:08.406Z,10.60
2018-08-30T20:17:37.188Z,10.13
2018-08-30T20:20:07.600Z,10.97
2018-08-30T20:22:36.589Z,10.03
2018-08-30T20:25:17.920Z,9.70
2018-08-30T20:27:46.801Z,10.17
2018-08-30T20:30:16.035Z,9.70
2018-08-30T20:32:44.520Z,9.83
2018-08-30T20:35:13.883Z,10.70
2018-08-30T20:37:42.792Z,9.63
2018-08-30T20:40:12.213Z,10.60
2018-08-30T20:42:40.692Z,10.67
2018-08-30T20:45:09.333Z,11.50
2018-08-30T20:47:38.003Z,10.10
2018-08-30T20:50:06.790Z,10.03
2018-08-30T20:52:35.763Z,10.10
2018-08-30T20:55:06.458Z,10.60
2018-08-30T20:57:34.937Z,11.10
2018-08-30T21:00:03.454Z,10.70
2018-08-30T21:02:31.888Z,10.70
2018-08-30T21:05:00.361Z,10.27
2018-08-30T21:07:28.786Z,10.20
2018-08-30T21:09:57.200Z,11.10
2018-08-30T21:12:25.854Z,10.90
2018-08-30T21:14:54.332Z,11.93
2018-08-30T21:17:22.765Z,10.63
2018-08-30T21:19:51.184Z,11.77
2018-08-30T21:22:19.625Z,10.57
2018-08-30T21:24:48.079Z,10.20
2018-08-30T21:27:16.517Z,12.10
2018-08-30T21:29:44.953Z,11.90
2018-08-30T21:32:13.380Z,11.00
2018-08-30T21:34:41.810Z,10.57
2018-08-30T21:37:10.229Z,11.87
2018-08-30T21:39:38.683Z,12.23
2018-08-30T21:42:07.334Z,10.97
2018-08-30T21:44:35.787Z,11.87
2018-08-30T21:47:04.249Z,12.13
2018-08-30T21:49:32.673Z,11.97
2018-08-30T21:52:01.186Z,12.10
2018-08-30T21:54:29.618Z,12.87
2018-08-30T21:56:58.317Z,13.27
2018-08-30T21:59:26.764Z,12.03
2018-08-30T22:01:55.196Z,12.57
2018-08-30T22:04:23.649Z,12.03
2018-08-30T22:06:52.070Z,12.87
2018-08-30T22:09:20.501Z,12.03
2018-08-30T22:11:48.956Z,12.20
2018-08-30T22:14:17.429Z,11.87
2018-08-30T22:16:46.114Z,12.70
2018-08-30T22:19:14.581Z,12.23
2018-08-30T22:21:43.026Z,11.47
2018-08-30T22:24:11.527Z,10.97
2018-08-30T22:26:40.205Z,11.67
2018-08-30T22:29:08.630Z,13.07
2018-08-30T22:31:37.296Z,11.53
2018-08-30T22:34:05.785Z,11.63
2018-08-30T22:36:34.216Z,11.50
2018-08-30T22:39:02.770Z,11.77
2018-08-30T22:41:31.197Z,12.30
2018-08-30T22:43:59.700Z,11.80
2018-08-30T22:46:28.337Z,10.70
2018-08-30T22:48:56.783Z,11.57
2018-08-30T22:51:25.254Z,11.83
2018-08-30T22:53:53.685Z,10.93
2018-08-30T22:56:22.131Z,11.00
2018-08-30T22:58:50.588Z,12.53
2018-08-30T23:01:19.246Z,11.40
2018-08-30T23:03:47.689Z,10.27
2018-08-30T23:06:16.116Z,12.37
2018-08-30T23:08:44.585Z,11.47
2018-08-30T23:11:13.041Z,11.70
2018-08-30T23:13:41.474Z,11.57
2018-08-30T23:16:09.952Z,11.30
2018-08-30T23:18:38.394Z,11.33
2018-08-30T23:21:06.891Z,11.63
2018-08-30T23:23:35.346Z,11.97
2018-08-30T23:26:03.770Z,11.23
2018-08-30T23:28:32.434Z,11.80
2018-08-30T23:31:00.871Z,12.10
2018-08-30T23:33:29.288Z,12.23
2018-08-30T23:35:57.726Z,11.97
2018-08-30T23:38:26.400Z,12.00
2018-08-30T23:40:54.815Z,11.20
2018-08-30T23:54:48.240Z,11.87
2018-08-30T23:57:16.897Z,12.00
2018-08-30T23:59:56.533Z,11.60
